Time;durP1;ratioP1;P1;durP2;ratioP2;P2;SDS_P1;SDS_P2;PMS_P1;PMS_P2;Temp;Humidity;BMP_temperature;BMP_pressure;BME280_temperature;BME280_humidity;BME280_pressure;Samples;Min_cycle;Max_cycle;Signal;HPM_P1;HPM_P2
2023/11/07 00:01:51;;;;;;;14.68;2.45;;;8.60;99.90;;;;;;4887664;28;88405;-80
2023/11/07 00:04:17;;;;;;;6.18;1.55;;;8.50;99.90;;;;;;4887993;28;86014;-79
2023/11/07 00:06:43;;;;;;;7.32;1.67;;;8.50;99.90;;;;;;4900020;28;86616;-80
2023/11/07 00:09:14;;;;;;;6.55;1.60;;;8.50;99.90;;;;;;4886963;28;89419;-80
2023/11/07 00:11:40;;;;;;;11.07;1.80;;;8.50;99.90;;;;;;4902931;28;88787;-81
2023/11/07 00:14:06;;;;;;;10.18;1.65;;;8.50;99.90;;;;;;4885747;28;86058;-79
2023/11/07 00:16:35;;;;;;;8.70;1.63;;;8.50;99.90;;;;;;4902844;28;86101;-80
2023/11/07 00:19:00;;;;;;;8.25;2.05;;;8.50;99.90;;;;;;4884551;28;87737;-80
2023/11/07 00:21:26;;;;;;;13.48;2.50;;;8.50;99.90;;;;;;4902031;28;88530;-79
2023/11/07 00:23:54;;;;;;;7.00;1.45;;;8.50;99.90;;;;;;4885462;28;86214;-80
2023/11/07 00:26:20;;;;;;;4.63;1.17;;;8.50;99.90;;;;;;4901399;28;86025;-80
2023/11/07 00:28:46;;;;;;;8.40;2.15;;;8.50;99.90;;;;;;4883370;28;90685;-80
2023/11/07 00:31:15;;;;;;;10.70;1.80;;;8.50;99.90;;;;;;4882995;28;86576;-80
2023/11/07 00:33:41;;;;;;;10.35;1.55;;;8.50;99.90;;;;;;4888043;28;86662;-80
2023/11/07 00:36:07;;;;;;;7.38;1.67;;;8.60;99.90;;;;;;4884135;28;86333;-79
2023/11/07 00:38:33;;;;;;;7.18;1.73;;;8.60;99.90;;;;;;4904909;28;90194;-81
2023/11/07 00:41:01;;;;;;;6.40;1.73;;;8.60;99.90;;;;;;4901775;28;91023;-79
2023/11/07 00:43:27;;;;;;;6.13;1.83;;;8.60;99.90;;;;;;4883546;28;86128;-80
2023/11/07 00:45:52;;;;;;;5.20;1.73;;;8.60;99.90;;;;;;4889846;28;86336;-81
2023/11/07 00:48:18;;;;;;;11.02;1.48;;;8.60;99.90;;;;;;4883547;28;90949;-80
2023/11/07 00:50:44;;;;;;;5.43;1.27;;;8.60;99.90;;;;;;4897294;28;88785;-82
2023/11/07 00:53:09;;;;;;;4.85;1.35;;;8.60;99.90;;;;;;4883079;28;86296;-80
2023/11/07 00:55:35;;;;;;;7.70;1.38;;;8.60;99.90;;;;;;4900657;28;86057;-79
2023/11/07 00:58:00;;;;;;;8.07;1.63;;;8.60;99.90;;;;;;4885568;28;87539;-80
2023/11/07 01:00:27;;;;;;;4.35;1.52;;;8.60;99.90;;;;;;4897398;28;88606;-79
2023/11/07 01:02:53;;;;;;;8.27;2.15;;;8.60;99.90;;;;;;4887144;28;86247;-81
2023/11/07 01:05:19;;;;;;;9.48;2.60;;;8.50;99.90;;;;;;4881729;28;86568;-79
2023/11/07 01:07:48;;;;;;;6.60;1.65;;;8.50;99.90;;;;;;4885174;28;88616;-80
2023/11/07 01:10:13;;;;;;;7.68;1.58;;;8.50;99.90;;;;;;4886832;28;86331;-80
2023/11/07 01:12:39;;;;;;;7.32;2.13;;;8.50;99.90;;;;;;4900614;28;85903;-80
2023/11/07 01:15:05;;;;;;;6.93;1.60;;;8.40;99.90;;;;;;4874422;28;85979;-80
2023/11/07 01:17:31;;;;;;;8.55;1.75;;;8.40;99.90;;;;;;4884108;28;90619;-79
2023/11/07 01:19:59;;;;;;;6.03;1.25;;;8.40;99.90;;;;;;4898973;28;88135;-80
2023/11/07 01:22:26;;;;;;;5.00;1.27;;;8.40;99.90;;;;;;4901473;28;85908;-81
2023/11/07 01:24:51;;;;;;;4.03;1.42;;;8.40;99.90;;;;;;4886540;28;86443;-80
2023/11/07 01:27:17;;;;;;;6.15;1.90;;;8.40;99.90;;;;;;4900463;28;89346;-79
2023/11/07 01:29:43;;;;;;;7.97;1.45;;;8.40;99.90;;;;;;4901142;28;88330;-81
2023/11/07 01:32:08;;;;;;;11.75;1.55;;;8.40;99.90;;;;;;4885152;28;86789;-80
2023/11/07 01:34:34;;;;;;;8.18;1.38;;;8.40;99.90;;;;;;4883761;28;86047;-79
2023/11/07 01:37:00;;;;;;;6.28;1.40;;;8.40;99.90;;;;;;4884584;28;86222;-80
2023/11/07 01:39:25;;;;;;;7.47;1.50;;;8.40;99.90;;;;;;4899975;28;88208;-80
2023/11/07 01:41:51;;;;;;;7.40;1.70;;;8.40;99.90;;;;;;4903309;28;86899;-81
2023/11/07 01:44:17;;;;;;;4.10;1.60;;;8.40;99.90;;;;;;4887582;28;86423;-80
2023/11/07 01:46:43;;;;;;;5.28;1.58;;;8.50;99.90;;;;;;4902332;28;91355;-80
2023/11/07 01:49:09;;;;;;;9.80;1.88;;;8.50;99.90;;;;;;4887810;28;88864;-79
2023/11/07 01:51:35;;;;;;;8.52;2.10;;;8.50;99.90;;;;;;4883753;28;86453;-80
2023/11/07 01:54:02;;;;;;;7.13;1.67;;;8.50;99.90;;;;;;4902164;28;85812;-80
2023/11/07 01:56:28;;;;;;;6.80;1.65;;;8.50;99.90;;;;;;4889362;28;87016;-81
2023/11/07 01:58:57;;;;;;;9.40;2.13;;;8.50;99.90;;;;;;4883211;28;89674;-80
2023/11/07 02:01:24;;;;;;;9.13;1.55;;;8.50;99.90;;;;;;4900903;28;86236;-80
2023/11/07 02:03:51;;;;;;;4.85;1.40;;;8.50;99.90;;;;;;4901521;28;85840;-79
2023/11/07 02:06:17;;;;;;;11.35;1.77;;;8.50;99.90;;;;;;4885498;28;87606;-79
2023/11/07 02:08:42;;;;;;;6.13;1.20;;;8.60;99.90;;;;;;4886470;28;89910;-80
2023/11/07 02:11:08;;;;;;;4.10;1.50;;;8.60;99.90;;;;;;4889252;28;85788;-80
2023/11/07 02:13:34;;;;;;;4.38;1.17;;;8.60;99.90;;;;;;4893969;28;85910;-80
2023/11/07 02:16:00;;;;;;;6.53;1.25;;;8.60;99.90;;;;;;4894852;28;88851;-81
2023/11/07 02:18:25;;;;;;;5.75;1.45;;;8.60;99.90;;;;;;4903718;28;89384;-80
2023/11/07 02:20:51;;;;;;;5.13;1.45;;;8.60;99.90;;;;;;4883454;28;86551;-80
2023/11/07 02:23:29;;;;;;;11.77;2.20;;;8.70;99.90;;;;;;4903545;28;85906;-80
2023/11/07 02:25:56;;;;;;;5.28;1.10;;;8.70;99.90;;;;;;4899605;28;89930;-80
2023/11/07 02:28:22;;;;;;;5.07;1.33;;;8.70;99.90;;;;;;4885560;28;86824;-80
2023/11/07 02:30:48;;;;;;;5.55;1.30;;;8.70;99.90;;;;;;4886509;28;86468;-80
2023/11/07 02:33:14;;;;;;;9.23;1.98;;;8.70;99.90;;;;;;4900208;28;86059;-80
2023/11/07 02:35:41;;;;;;;6.68;1.63;;;8.80;99.90;;;;;;4902292;28;88784;-80
2023/11/07 02:38:07;;;;;;;7.63;1.30;;;8.90;99.90;;;;;;4887643;28;86929;-81
2023/11/07 02:40:33;;;;;;;5.90;1.35;;;8.90;99.90;;;;;;4902293;28;86617;-81
2023/11/07 02:43:04;;;;;;;2.58;1.30;;;8.90;99.90;;;;;;4897134;28;86091;-81
2023/11/07 02:45:30;;;;;;;12.85;2.45;;;9.00;99.90;;;;;;4897282;28;90480;-79
2023/11/07 02:47:57;;;;;;;4.28;1.20;;;9.00;99.90;;;;;;4897375;28;89773;-80
2023/11/07 02:50:22;;;;;;;5.28;1.75;;;9.00;99.90;;;;;;4898354;28;87344;-80
2023/11/07 02:52:51;;;;;;;11.18;1.50;;;9.10;99.90;;;;;;4897010;28;86323;-81
2023/11/07 02:55:17;;;;;;;6.15;1.63;;;9.10;99.90;;;;;;4885749;28;87529;-81
2023/11/07 02:57:43;;;;;;;3.83;1.50;;;9.10;99.90;;;;;;4878623;28;90221;-79
2023/11/07 03:00:10;;;;;;;2.95;1.20;;;9.10;99.90;;;;;;4900676;28;86661;-81
2023/11/07 03:02:37;;;;;;;6.03;1.88;;;9.20;99.90;;;;;;4886928;28;86505;-81
2023/11/07 03:05:04;;;;;;;4.90;1.67;;;9.20;99.90;;;;;;4903677;28;91032;-80
2023/11/07 03:07:30;;;;;;;6.97;1.77;;;9.20;99.90;;;;;;4886700;28;89596;-81
2023/11/07 03:09:58;;;;;;;4.47;1.27;;;9.20;99.90;;;;;;4903488;28;86296;-81
2023/11/07 03:12:23;;;;;;;8.32;1.45;;;9.20;99.90;;;;;;4899207;28;85967;-80
2023/11/07 03:14:49;;;;;;;10.02;1.52;;;9.20;99.90;;;;;;4888055;28;92047;-80
2023/11/07 03:17:15;;;;;;;4.20;1.20;;;9.20;99.90;;;;;;4888749;28;88531;-80
2023/11/07 03:19:44;;;;;;;4.90;1.35;;;9.20;99.90;;;;;;4885246;28;86575;-81
2023/11/07 03:22:10;;;;;;;6.40;1.40;;;9.20;99.90;;;;;;4889751;28;86488;-79
2023/11/07 03:24:36;;;;;;;6.13;1.35;;;9.30;99.90;;;;;;4890702;28;87523;-81
2023/11/07 03:27:01;;;;;;;7.93;1.65;;;9.30;99.90;;;;;;4904569;28;89160;-80
2023/11/07 03:29:27;;;;;;;2.78;1.20;;;9.30;99.90;;;;;;4888254;28;85779;-80
2023/11/07 03:31:53;;;;;;;7.53;1.50;;;9.30;99.90;;;;;;4900463;28;86305;-80
2023/11/07 03:34:19;;;;;;;6.05;1.40;;;9.40;99.90;;;;;;4903102;28;88934;-79
2023/11/07 03:36:45;;;;;;;9.63;1.60;;;9.40;99.90;;;;;;4904153;28;88232;-80
2023/11/07 03:39:15;;;;;;;4.53;1.20;;;9.50;99.90;;;;;;4904493;28;86430;-81
2023/11/07 03:41:41;;;;;;;4.60;1.33;;;9.50;99.90;;;;;;4888418;28;86681;-80
2023/11/07 03:44:07;;;;;;;1.88;0.95;;;9.50;99.90;;;;;;4905393;28;90535;-80
2023/11/07 03:46:33;;;;;;;3.78;1.45;;;9.50;99.90;;;;;;4905784;28;87756;-80
2023/11/07 03:48:58;;;;;;;4.72;1.40;;;9.50;99.90;;;;;;4890820;28;86390;-79
2023/11/07 03:51:24;;;;;;;4.38;1.58;;;9.50;99.90;;;;;;4903819;28;86185;-81
2023/11/07 03:53:49;;;;;;;3.42;1.00;;;9.60;99.90;;;;;;4884093;28;89010;-79
2023/11/07 03:56:16;;;;;;;4.82;1.70;;;9.60;99.90;;;;;;4901058;28;88407;-80
2023/11/07 03:58:41;;;;;;;5.60;1.38;;;9.60;99.90;;;;;;4888258;28;85863;-79
2023/11/07 04:01:07;;;;;;;4.10;1.45;;;9.60;99.90;;;;;;4883492;28;85809;-80
2023/11/07 04:03:33;;;;;;;5.88;1.63;;;9.60;99.90;;;;;;4885866;28;90301;-81
2023/11/07 04:05:58;;;;;;;4.72;1.50;;;9.60;99.90;;;;;;4891705;28;88684;-80
2023/11/07 04:08:24;;;;;;;2.50;1.20;;;9.60;99.90;;;;;;4904457;28;86246;-80
2023/11/07 04:10:50;;;;;;;4.95;1.40;;;9.70;99.90;;;;;;4902886;28;86706;-79
2023/11/07 04:13:15;;;;;;;4.38;1.40;;;9.70;99.90;;;;;;4902111;28;89606;-80
2023/11/07 04:15:43;;;;;;;6.75;1.20;;;9.70;99.90;;;;;;4904139;28;90007;-80
2023/11/07 04:18:10;;;;;;;5.70;1.30;;;9.70;99.90;;;;;;4887979;28;86346;-81
2023/11/07 04:20:37;;;;;;;3.50;1.20;;;9.70;99.90;;;;;;4904544;28;86566;-80
2023/11/07 04:23:04;;;;;;;4.30;1.15;;;9.70;99.90;;;;;;4887772;28;92954;-81
2023/11/07 04:25:32;;;;;;;16.48;1.42;;;9.70;99.90;;;;;;4899151;28;88381;-80
2023/11/07 04:27:58;;;;;;;2.95;0.90;;;9.70;99.90;;;;;;4904316;28;86112;-81
2023/11/07 04:30:25;;;;;;;3.72;1.10;;;9.70;99.90;;;;;;4904870;28;86294;-80
2023/11/07 04:32:51;;;;;;;3.33;1.27;;;9.70;99.90;;;;;;4886617;28;87116;-81
2023/11/07 04:35:17;;;;;;;4.63;1.58;;;9.70;99.90;;;;;;4883539;28;87384;-80
2023/11/07 04:37:42;;;;;;;7.30;1.40;;;9.70;99.90;;;;;;4887850;28;86320;-80
2023/11/07 04:40:16;;;;;;;9.02;1.20;;;9.70;99.90;;;;;;4886447;28;86007;-80
2023/11/07 04:42:42;;;;;;;5.18;0.80;;;9.70;99.90;;;;;;4902745;28;90915;-80
2023/11/07 04:45:08;;;;;;;4.70;1.05;;;9.70;99.90;;;;;;4890685;28;86511;-81
2023/11/07 04:47:34;;;;;;;6.97;1.50;;;9.70;99.90;;;;;;4884229;28;85964;-81
2023/11/07 04:50:00;;;;;;;2.58;1.00;;;9.70;99.90;;;;;;4902030;28;86059;-80
2023/11/07 04:52:25;;;;;;;5.55;1.20;;;9.70;99.90;;;;;;4900105;28;90999;-80
2023/11/07 04:54:53;;;;;;;2.85;1.02;;;9.70;99.90;;;;;;4888461;28;86376;-79
2023/11/07 04:57:20;;;;;;;7.22;1.45;;;9.70;99.90;;;;;;4897544;28;86420;-81
2023/11/07 04:59:54;;;;;;;4.53;1.00;;;9.70;99.90;;;;;;4887778;28;86275;-80
2023/11/07 05:02:22;;;;;;;1.95;0.80;;;9.70;99.90;;;;;;4882916;28;90112;-81
2023/11/07 05:04:48;;;;;;;7.25;1.05;;;9.70;99.90;;;;;;4884457;28;89400;-80
2023/11/07 05:07:13;;;;;;;2.13;0.80;;;9.70;99.90;;;;;;4888456;28;86567;-80
2023/11/07 05:09:39;;;;;;;2.88;0.80;;;9.70;99.90;;;;;;4886480;28;86024;-81
2023/11/07 05:12:06;;;;;;;4.88;1.00;;;9.70;99.90;;;;;;4898442;28;90471;-79
2023/11/07 05:14:35;;;;;;;1.20;0.80;;;9.60;99.90;;;;;;4887846;28;86806;-81
2023/11/07 05:17:00;;;;;;;2.58;1.08;;;9.60;99.90;;;;;;4890889;28;85902;-81
2023/11/07 05:19:26;;;;;;;7.50;1.27;;;9.60;99.90;;;;;;4903865;28;86103;-79
2023/11/07 05:21:54;;;;;;;4.38;1.00;;;9.50;99.90;;;;;;4889240;28;92055;-80
2023/11/07 05:24:19;;;;;;;2.75;0.80;;;9.50;99.90;;;;;;4903813;28;89185;-80
2023/11/07 05:26:45;;;;;;;4.63;1.00;;;9.50;99.90;;;;;;4906199;28;86634;-80
2023/11/07 05:29:15;;;;;;;2.28;0.80;;;9.50;99.90;;;;;;4894397;28;85858;-80
2023/11/07 05:31:43;;;;;;;2.55;0.98;;;9.50;99.90;;;;;;4904822;28;88825;-81
2023/11/07 05:34:08;;;;;;;3.83;0.90;;;9.50;99.90;;;;;;4910670;28;87418;-80
2023/11/07 05:36:37;;;;;;;3.17;1.20;;;9.50;99.90;;;;;;4907176;28;87327;-80
2023/11/07 05:39:03;;;;;;;3.38;0.90;;;9.50;99.90;;;;;;4889380;28;86395;-81
2023/11/07 05:41:30;;;;;;;4.47;1.10;;;9.40;99.90;;;;;;4907592;28;89798;-79
2023/11/07 05:44:05;;;;;;;2.10;1.10;;;9.40;99.90;;;;;;4890686;28;85890;-81
2023/11/07 05:46:32;;;;;;;4.80;1.27;;;9.40;99.90;;;;;;4889588;28;86494;-81
2023/11/07 05:49:05;;;;;;;3.58;1.38;;;9.40;99.90;;;;;;4893091;28;86537;-81
2023/11/07 05:51:30;;;;;;;3.40;1.20;;;9.30;99.90;;;;;;4888664;28;88834;-80
2023/11/07 05:53:59;;;;;;;3.08;1.50;;;9.40;99.90;;;;;;4903490;28;89086;-79
2023/11/07 05:56:25;;;;;;;4.45;1.25;;;9.30;99.90;;;;;;4907374;28;86048;-79
2023/11/07 05:58:50;;;;;;;5.00;1.42;;;9.30;99.90;;;;;;4909252;28;85735;-81
2023/11/07 06:01:16;;;;;;;4.95;1.88;;;9.20;99.90;;;;;;4901206;28;90763;-80
2023/11/07 06:03:42;;;;;;;3.95;1.33;;;9.20;99.90;;;;;;4902421;28;89742;-81
2023/11/07 06:06:08;;;;;;;2.85;1.70;;;9.20;99.90;;;;;;4884734;28;86446;-80
2023/11/07 06:08:36;;;;;;;6.25;1.60;;;9.20;99.90;;;;;;4887257;28;86206;-80
2023/11/07 06:11:02;;;;;;;6.40;1.88;;;9.20;99.90;;;;;;4899017;28;91526;-80
2023/11/07 06:13:28;;;;;;;6.55;1.75;;;9.10;99.90;;;;;;4899905;28;89871;-79
2023/11/07 06:15:53;;;;;;;6.00;1.52;;;9.20;99.90;;;;;;4896485;28;86249;-80
2023/11/07 06:18:21;;;;;;;6.60;1.63;;;9.20;99.90;;;;;;4898445;28;86516;-80
2023/11/07 06:20:47;;;;;;;6.45;1.70;;;9.10;99.90;;;;;;4877624;28;90220;-80
2023/11/07 06:23:13;;;;;;;4.90;1.80;;;9.10;99.90;;;;;;4899281;28;90319;-81
2023/11/07 06:25:39;;;;;;;5.70;2.03;;;9.20;99.90;;;;;;4897365;28;88622;-79
2023/11/07 06:28:05;;;;;;;6.05;2.08;;;9.20;99.90;;;;;;4881893;28;86440;-80
2023/11/07 06:30:30;;;;;;;4.57;1.63;;;9.20;99.90;;;;;;4893752;28;88725;-80
2023/11/07 06:32:57;;;;;;;7.63;2.50;;;9.10;99.90;;;;;;4895751;28;88103;-80
2023/11/07 06:35:23;;;;;;;4.72;2.00;;;9.20;99.90;;;;;;4902163;28;87140;-79
2023/11/07 06:37:49;;;;;;;4.30;2.47;;;9.20;99.90;;;;;;4899449;28;86192;-80
2023/11/07 06:40:16;;;;;;;5.20;2.03;;;9.20;99.90;;;;;;4883093;28;90839;-79
2023/11/07 06:42:43;;;;;;;6.40;2.20;;;9.20;99.90;;;;;;4887503;28;86447;-80
2023/11/07 06:45:15;;;;;;;7.03;2.55;;;9.10;99.90;;;;;;4886680;28;85996;-80
2023/11/07 06:47:42;;;;;;;10.60;2.72;;;9.10;99.90;;;;;;4885918;28;86565;-80
2023/11/07 06:50:09;;;;;;;6.00;2.75;;;9.10;99.90;;;;;;4883439;28;90092;-80
2023/11/07 06:52:39;;;;;;;6.35;2.92;;;9.10;99.90;;;;;;4888463;28;87042;-80
2023/11/07 06:55:06;;;;;;;5.40;2.50;;;9.10;99.90;;;;;;4886771;28;86269;-80
2023/11/07 06:57:35;;;;;;;9.13;3.60;;;9.10;99.90;;;;;;4887286;28;86247;-80
2023/11/07 07:00:05;;;;;;;9.60;3.05;;;9.10;99.90;;;;;;4886431;28;86692;-81
2023/11/07 07:02:31;;;;;;;7.68;3.20;;;9.10;99.90;;;;;;4903006;28;88967;-80
2023/11/07 07:04:58;;;;;;;10.60;4.10;;;9.00;99.90;;;;;;4901480;28;86242;-80
2023/11/07 07:07:23;;;;;;;7.95;3.72;;;9.00;99.90;;;;;;4901483;28;86644;-80
2023/11/07 07:09:49;;;;;;;9.90;3.67;;;9.00;99.90;;;;;;4888166;28;86964;-80
2023/11/07 07:12:17;;;;;;;9.93;3.88;;;9.00;99.90;;;;;;4885103;28;89976;-79
2023/11/07 07:14:43;;;;;;;13.15;3.90;;;8.90;99.90;;;;;;4883244;28;86005;-79
2023/11/07 07:17:09;;;;;;;9.93;4.50;;;9.00;99.90;;;;;;4890488;28;86794;-80
2023/11/07 07:19:37;;;;;;;11.23;4.55;;;9.00;99.90;;;;;;4906165;28;88771;-79
2023/11/07 07:22:06;;;;;;;11.75;4.30;;;8.90;99.90;;;;;;4883347;28;88173;-79
2023/11/07 07:24:32;;;;;;;11.02;4.60;;;8.90;99.90;;;;;;4880323;28;86846;-79
2023/11/07 07:27:00;;;;;;;7.63;4.20;;;8.90;99.90;;;;;;4898636;28;86205;-80
2023/11/07 07:29:28;;;;;;;12.73;4.38;;;8.90;99.90;;;;;;4911147;28;90622;-81
2023/11/07 07:31:56;;;;;;;11.27;4.00;;;8.90;99.90;;;;;;4890939;28;89628;-81
2023/11/07 07:34:22;;;;;;;10.60;4.40;;;8.90;99.90;;;;;;4889877;28;85779;-81
2023/11/07 07:36:50;;;;;;;10.25;4.65;;;8.90;99.90;;;;;;4880955;28;86206;-80
2023/11/07 07:39:27;;;;;;;11.88;4.05;;;8.90;99.90;;;;;;4886421;28;87923;-80
2023/11/07 07:41:55;;;;;;;9.40;4.18;;;9.00;99.90;;;;;;4887991;28;87792;-79
2023/11/07 07:44:27;;;;;;;18.13;5.25;;;9.00;99.90;;;;;;4882098;28;86166;-80
2023/11/07 07:46:56;;;;;;;10.30;4.03;;;9.00;99.90;;;;;;4884029;28;86095;-81
2023/11/07 07:49:25;;;;;;;9.98;3.97;;;9.10;99.90;;;;;;4899498;28;88870;-81
2023/11/07 07:51:54;;;;;;;14.65;4.10;;;9.20;99.90;;;;;;4896426;28;88548;-81
2023/11/07 07:54:22;;;;;;;10.57;3.80;;;9.20;99.90;;;;;;4887755;28;86268;-79
2023/11/07 07:56:52;;;;;;;11.60;4.63;;;9.30;99.90;;;;;;4901442;28;86217;-78
2023/11/07 07:59:23;;;;;;;10.85;4.50;;;9.30;99.90;;;;;;4897186;28;87542;-80
2023/11/07 08:01:55;;;;;;;9.82;3.58;;;9.30;99.90;;;;;;4875199;28;88913;-80
2023/11/07 08:04:22;;;;;;;6.13;3.30;;;9.40;99.90;;;;;;4879587;28;89205;-80
2023/11/07 08:06:47;;;;;;;10.88;3.35;;;9.40;99.90;;;;;;4877142;28;86510;-80
2023/11/07 08:09:13;;;;;;;9.70;3.35;;;9.50;99.90;;;;;;4879201;28;86435;-80
2023/11/07 08:11:42;;;;;;;6.82;3.03;;;9.50;99.90;;;;;;4883223;28;86821;-79
2023/11/07 08:14:09;;;;;;;8.45;2.70;;;9.50;99.90;;;;;;4896030;28;87014;-80
2023/11/07 08:16:34;;;;;;;8.63;3.17;;;9.50;99.90;;;;;;4897799;28;87060;-80
2023/11/07 08:19:03;;;;;;;6.72;3.17;;;9.50;99.90;;;;;;4893830;28;90412;-79
2023/11/07 08:21:29;;;;;;;13.65;3.05;;;9.50;99.90;;;;;;4877725;28;90502;-80
2023/11/07 08:23:55;;;;;;;9.60;3.88;;;9.50;99.90;;;;;;4895198;28;86588;-79
2023/11/07 08:26:22;;;;;;;11.60;3.70;;;9.50;99.90;;;;;;4895700;28;85897;-80
2023/11/07 08:28:48;;;;;;;7.93;3.15;;;9.60;99.90;;;;;;4879356;28;86959;-79
2023/11/07 08:31:14;;;;;;;11.75;3.28;;;9.60;99.90;;;;;;4895497;28;90049;-79
2023/11/07 08:33:40;;;;;;;12.43;3.05;;;9.60;99.90;;;;;;4898157;28;86939;-79
2023/11/07 08:36:09;;;;;;;8.57;3.08;;;9.60;99.90;;;;;;4887811;28;86312;-79
2023/11/07 08:38:40;;;;;;;14.23;2.88;;;9.60;99.90;;;;;;4889500;28;88804;-78
2023/11/07 08:41:06;;;;;;;4.57;2.90;;;9.70;99.90;;;;;;4871600;28;90962;-79
2023/11/07 08:43:31;;;;;;;18.63;3.88;;;9.80;99.90;;;;;;4879305;28;86821;-78
2023/11/07 08:45:57;;;;;;;9.52;2.95;;;9.80;99.90;;;;;;4876587;28;86644;-79
2023/11/07 08:48:23;;;;;;;11.57;2.45;;;9.80;99.90;;;;;;4884074;28;87285;-82
2023/11/07 08:50:51;;;;;;;5.82;2.35;;;9.90;99.90;;;;;;4878307;28;86533;-79
2023/11/07 08:53:18;;;;;;;9.52;2.30;;;9.90;99.90;;;;;;4893109;28;86310;-78
2023/11/07 08:55:44;;;;;;;10.90;2.17;;;10.00;99.90;;;;;;4875248;28;86507;-79
2023/11/07 08:58:10;;;;;;;5.55;2.25;;;10.00;99.90;;;;;;4892231;28;90612;-79
2023/11/07 09:00:35;;;;;;;5.55;2.30;;;10.10;99.90;;;;;;4876615;28;92218;-80
2023/11/07 09:03:02;;;;;;;7.32;2.13;;;10.10;99.90;;;;;;4880906;28;86446;-80
2023/11/07 09:05:28;;;;;;;6.90;2.17;;;10.10;99.90;;;;;;4894570;28;86476;-79
2023/11/07 09:07:54;;;;;;;8.40;2.30;;;10.20;99.90;;;;;;4880701;28;90974;-80
2023/11/07 09:10:20;;;;;;;8.52;2.17;;;10.20;99.90;;;;;;4891101;28;87264;-79
2023/11/07 09:12:46;;;;;;;9.43;1.88;;;10.30;99.90;;;;;;4880860;28;86691;-80
2023/11/07 09:15:12;;;;;;;7.60;2.10;;;10.30;99.90;;;;;;4877833;28;86387;-80
2023/11/07 09:17:41;;;;;;;9.52;2.58;;;10.40;99.90;;;;;;4892651;28;90811;-80
2023/11/07 09:20:14;;;;;;;6.78;1.35;;;10.40;99.90;;;;;;4878379;28;87295;-78
2023/11/07 09:22:43;;;;;;;5.50;1.37;;;10.40;99.90;;;;;;4892710;28;86534;-80
2023/11/07 09:25:09;;;;;;;4.40;1.30;;;10.50;99.90;;;;;;4893551;28;86626;-80
2023/11/07 09:27:36;;;;;;;8.32;1.90;;;10.50;99.90;;;;;;4892998;28;90045;-79
2023/11/07 09:30:04;;;;;;;6.32;1.45;;;10.60;99.90;;;;;;4877951;28;88144;-78
2023/11/07 09:32:35;;;;;;;3.58;1.30;;;10.70;99.90;;;;;;4893556;28;87146;-78
2023/11/07 09:35:02;;;;;;;9.35;1.75;;;10.80;99.90;;;;;;4891295;28;86223;-78
2023/11/07 09:37:29;;;;;;;5.20;1.33;;;10.90;99.90;;;;;;4892880;28;88974;-78
2023/11/07 09:39:54;;;;;;;6.88;1.30;;;10.90;99.90;;;;;;4874338;28;90330;-78
2023/11/07 09:42:20;;;;;;;2.90;1.00;;;11.00;99.90;;;;;;4875074;28;87353;-79
2023/11/07 09:44:48;;;;;;;4.00;0.95;;;11.00;99.90;;;;;;4876686;28;86637;-78
2023/11/07 09:47:14;;;;;;;2.63;0.90;;;11.00;99.90;;;;;;4874393;28;87872;-79
2023/11/07 09:49:40;;;;;;;2.60;1.00;;;11.00;99.90;;;;;;4876308;28;86856;-78
2023/11/07 09:52:06;;;;;;;5.10;1.88;;;11.00;99.90;;;;;;4876957;28;86949;-79
2023/11/07 09:54:33;;;;;;;6.63;1.33;;;11.10;99.90;;;;;;4891751;28;86708;-79
2023/11/07 09:57:06;;;;;;;8.52;1.30;;;11.10;99.90;;;;;;4875474;28;87228;-78
2023/11/07 09:59:59;;;;;;;8.43;1.55;;;11.10;99.90;;;;;;4885458;28;87962;-78
2023/11/07 10:02:26;;;;;;;8.25;1.10;;;11.10;99.90;;;;;;4872846;28;86859;-78
2023/11/07 10:04:53;;;;;;;4.90;1.30;;;11.20;99.90;;;;;;4877600;28;87346;-79
2023/11/07 10:07:18;;;;;;;3.97;1.00;;;11.20;99.90;;;;;;4872641;28;89704;-78
2023/11/07 10:09:46;;;;;;;5.03;0.90;;;11.10;99.90;;;;;;4884395;28;87644;-78
2023/11/07 10:12:18;;;;;;;5.88;0.93;;;11.20;99.90;;;;;;4896561;28;86488;-78
2023/11/07 10:14:43;;;;;;;4.65;0.85;;;11.20;99.90;;;;;;4877567;28;86543;-79
2023/11/07 10:17:22;;;;;;;6.80;1.23;;;11.30;99.90;;;;;;4881519;28;87720;-78
2023/11/07 10:20:11;;;;;;;6.43;0.90;;;11.40;99.90;;;;;;4877401;28;90234;-78
2023/11/07 10:22:46;;;;;;;2.63;0.90;;;11.40;99.90;;;;;;4895070;28;87101;-78
2023/11/07 10:25:34;;;;;;;5.85;1.52;;;11.40;99.90;;;;;;4878384;28;86434;-79
2023/11/07 10:28:02;;;;;;;3.33;0.90;;;11.40;99.90;;;;;;4880636;28;89481;-78
2023/11/07 10:30:45;;;;;;;9.32;1.05;;;11.40;99.90;;;;;;4894795;28;89950;-79
2023/11/07 10:33:23;;;;;;;3.55;1.33;;;11.40;99.90;;;;;;4893464;28;86683;-79
2023/11/07 10:35:54;;;;;;;6.85;1.60;;;11.50;99.90;;;;;;4897335;28;86268;-78
2023/11/07 10:38:21;;;;;;;5.07;0.90;;;11.50;99.90;;;;;;4891941;28;91140;-78
2023/11/07 10:40:50;;;;;;;2.83;1.00;;;11.50;99.90;;;;;;4880075;28;86925;-79
2023/11/07 10:43:37;;;;;;;4.35;1.42;;;11.40;99.90;;;;;;4893919;28;86498;-79
2023/11/07 10:46:09;;;;;;;8.52;1.45;;;11.40;99.90;;;;;;4889327;28;86429;-79
2023/11/07 10:48:39;;;;;;;3.83;1.10;;;11.40;99.90;;;;;;4883232;28;86737;-78
2023/11/07 10:51:10;;;;;;;7.20;1.23;;;11.40;99.90;;;;;;4879551;28;88471;-79
2023/11/07 10:53:36;;;;;;;7.18;0.95;;;11.30;99.90;;;;;;4889400;28;86557;-78
2023/11/07 10:56:18;;;;;;;4.25;1.15;;;11.30;99.90;;;;;;4894899;28;86587;-78
2023/11/07 10:58:54;;;;;;;2.85;0.80;;;11.20;99.90;;;;;;4882556;28;87008;-79
2023/11/07 11:01:22;;;;;;;1.67;0.80;;;11.10;99.90;;;;;;4876738;28;89858;-79
2023/11/07 11:03:53;;;;;;;6.18;0.90;;;11.10;99.90;;;;;;4899464;28;86432;-78
2023/11/07 11:06:23;;;;;;;2.47;1.13;;;11.00;99.90;;;;;;4894556;28;86670;-79
2023/11/07 11:08:56;;;;;;;3.13;1.00;;;11.00;99.90;;;;;;4878746;28;90685;-79
2023/11/07 11:11:24;;;;;;;3.10;0.88;;;11.00;99.90;;;;;;4880747;28;88272;-79
2023/11/07 11:13:53;;;;;;;10.77;0.90;;;11.00;99.90;;;;;;4877293;28;86953;-79
2023/11/07 11:16:21;;;;;;;3.65;0.90;;;10.90;99.90;;;;;;4879477;28;87560;-78
2023/11/07 11:19:06;;;;;;;4.63;0.90;;;10.90;99.90;;;;;;4894548;28;89307;-78
2023/11/07 11:21:52;;;;;;;6.35;1.00;;;10.90;99.90;;;;;;4895204;28;88864;-77
2023/11/07 11:24:34;;;;;;;2.90;1.38;;;10.90;99.90;;;;;;4877325;28;87275;-79
2023/11/07 11:27:15;;;;;;;5.82;1.20;;;10.90;99.90;;;;;;4888355;28;86674;-79
2023/11/07 11:29:49;;;;;;;2.88;0.98;;;11.00;99.90;;;;;;4877928;28;90716;-79
2023/11/07 11:32:43;;;;;;;3.47;0.90;;;11.10;99.90;;;;;;4880046;28;87468;-78
2023/11/07 11:35:15;;;;;;;2.45;0.82;;;11.20;99.90;;;;;;4877056;28;91040;-77
2023/11/07 11:38:10;;;;;;;9.25;0.63;;;11.20;99.90;;;;;;4893027;28;86032;-77
2023/11/07 11:40:49;;;;;;;2.67;0.75;;;11.30;99.90;;;;;;4879287;28;87551;-78
2023/11/07 11:43:16;;;;;;;3.38;0.70;;;11.40;99.90;;;;;;4879820;28;86465;-80
2023/11/07 11:45:42;;;;;;;2.92;1.00;;;11.40;99.90;;;;;;4876875;28;86611;-79
2023/11/07 11:48:07;;;;;;;4.65;1.23;;;11.40;99.90;;;;;;4876015;28;91954;-79
2023/11/07 11:50:37;;;;;;;4.50;0.90;;;11.40;99.90;;;;;;4882043;28;86635;-78
2023/11/07 11:53:06;;;;;;;5.63;0.98;;;11.40;99.90;;;;;;4874396;28;88562;-79
2023/11/07 11:56:00;;;;;;;4.20;1.02;;;11.40;99.90;;;;;;4892427;28;86669;-78
2023/11/07 11:58:31;;;;;;;2.47;0.80;;;11.40;99.90;;;;;;4875891;28;86590;-78
2023/11/07 12:00:58;;;;;;;5.70;1.10;;;11.40;99.90;;;;;;4877293;28;88945;-78
2023/11/07 12:03:36;;;;;;;2.65;0.80;;;11.40;99.90;;;;;;4892917;28;89432;-78
2023/11/07 12:06:06;;;;;;;4.20;0.90;;;11.30;99.90;;;;;;4895687;28;87280;-78
2023/11/07 12:08:48;;;;;;;8.60;1.50;;;11.30;99.90;;;;;;4892155;28;86600;-78
2023/11/07 12:11:14;;;;;;;1.80;0.90;;;11.40;99.90;;;;;;4880138;28;91053;-78
2023/11/07 12:13:39;;;;;;;2.80;0.85;;;11.40;99.90;;;;;;4876669;28;86381;-78
2023/11/07 12:16:16;;;;;;;6.55;0.98;;;11.30;99.90;;;;;;4881808;28;86700;-78
2023/11/07 12:18:46;;;;;;;4.43;1.50;;;11.30;99.90;;;;;;4893442;28;86616;-79
2023/11/07 12:21:21;;;;;;;5.18;1.02;;;11.30;99.90;;;;;;4877941;28;89507;-78
2023/11/07 12:23:47;;;;;;;4.28;0.95;;;11.20;99.90;;;;;;4895703;28;89841;-78
2023/11/07 12:26:12;;;;;;;3.42;0.80;;;11.20;99.90;;;;;;4882964;28;86415;-80
2023/11/07 12:28:49;;;;;;;2.33;0.60;;;11.20;99.90;;;;;;4897208;28;86648;-78
2023/11/07 12:31:15;;;;;;;2.03;0.88;;;11.20;99.90;;;;;;4886699;28;90960;-78
2023/11/07 12:33:42;;;;;;;5.75;1.95;;;11.10;99.90;;;;;;4872471;28;87146;-78
2023/11/07 12:36:12;;;;;;;4.57;0.90;;;11.20;99.90;;;;;;4878145;28;87108;-78
2023/11/07 12:38:41;;;;;;;5.38;0.70;;;11.20;99.90;;;;;;4878861;28;85982;-81
2023/11/07 12:41:08;;;;;;;1.83;0.63;;;11.20;99.90;;;;;;4897107;28;90056;-77
2023/11/07 12:43:41;;;;;;;1.90;0.70;;;11.20;99.90;;;;;;4890229;28;89734;-78
2023/11/07 12:46:12;;;;;;;5.28;0.75;;;11.20;99.90;;;;;;4878750;28;86662;-78
2023/11/07 12:48:38;;;;;;;4.80;1.00;;;11.20;99.90;;;;;;4893959;28;86957;-78
2023/11/07 12:51:08;;;;;;;2.47;1.05;;;11.20;99.90;;;;;;4876345;28;88660;-78
2023/11/07 12:53:46;;;;;;;3.45;0.80;;;11.20;99.90;;;;;;4880927;28;87099;-79
2023/11/07 12:56:11;;;;;;;3.50;0.82;;;11.20;99.90;;;;;;4877619;28;87318;-79
2023/11/07 12:58:37;;;;;;;4.05;0.93;;;11.20;99.90;;;;;;4879184;28;86463;-78